sensor_id;sensor_type;location;lat;lon;timestamp;P1;durP1;ratioP1;P2;durP2;ratioP2
65799;SDS011;52544;48.116;11.660;2023-06-01T00:00:55;11.20;;;7.00;;
65799;SDS011;52544;48.116;11.660;2023-06-01T00:03:21;13.45;;;7.70;;
65799;SDS011;52544;48.116;11.660;2023-06-01T00:05:47;12.98;;;6.82;;
65799;SDS011;52544;48.116;11.660;2023-06-01T00:08:13;12.13;;;7.45;;
65799;SDS011;52544;48.116;11.660;2023-06-01T00:10:38;12.57;;;7.50;;
65799;SDS011;52544;48.116;11.660;2023-06-01T00:13:04;17.63;;;7.38;;
65799;SDS011;52544;48.116;11.660;2023-06-01T00:15:29;15.73;;;7.78;;
65799;SDS011;52544;48.116;11.660;2023-06-01T00:17:54;13.38;;;8.25;;
65799;SDS011;52544;48.116;11.660;2023-06-01T00:20:21;22.77;;;7.30;;
65799;SDS011;52544;48.116;11.660;2023-06-01T00:22:48;15.25;;;7.38;;
65799;SDS011;52544;48.116;11.660;2023-06-01T00:25:14;13.50;;;7.22;;
65799;SDS011;52544;48.116;11.660;2023-06-01T00:27:40;13.57;;;7.75;;
65799;SDS011;52544;48.116;11.660;2023-06-01T00:30:05;13.10;;;7.45;;
65799;SDS011;52544;48.116;11.660;2023-06-01T00:32:31;11.70;;;7.47;;
65799;SDS011;52544;48.116;11.660;2023-06-01T00:34:57;10.75;;;7.38;;
65799;SDS011;52544;48.116;11.660;2023-06-01T00:37:22;14.23;;;7.50;;
65799;SDS011;52544;48.116;11.660;2023-06-01T00:39:47;12.82;;;6.97;;
65799;SDS011;52544;48.116;11.660;2023-06-01T00:42:13;14.90;;;7.70;;
65799;SDS011;52544;48.116;11.660;2023-06-01T00:44:38;13.20;;;7.50;;
65799;SDS011;52544;48.116;11.660;2023-06-01T00:47:03;16.77;;;7.85;;
65799;SDS011;52544;48.116;11.660;2023-06-01T00:49:29;15.68;;;7.78;;
65799;SDS011;52544;48.116;11.660;2023-06-01T00:51:55;12.18;;;7.40;;
65799;SDS011;52544;48.116;11.660;2023-06-01T00:54:20;12.57;;;7.70;;
65799;SDS011;52544;48.116;11.660;2023-06-01T00:56:46;14.13;;;8.20;;
65799;SDS011;52544;48.116;11.660;2023-06-01T00:59:12;12.27;;;8.15;;
65799;SDS011;52544;48.116;11.660;2023-06-01T01:01:38;14.40;;;7.90;;
65799;SDS011;52544;48.116;11.660;2023-06-01T01:04:04;14.45;;;7.32;;
65799;SDS011;52544;48.116;11.660;2023-06-01T01:12:04;10.63;;;7.43;;
65799;SDS011;52544;48.116;11.660;2023-06-01T01:14:44;12.57;;;7.35;;
65799;SDS011;52544;48.116;11.660;2023-06-01T01:18:02;14.18;;;7.80;;
65799;SDS011;52544;48.116;11.660;2023-06-01T01:20:18;13.82;;;8.35;;
65799;SDS011;52544;48.116;11.660;2023-06-01T01:23:02;15.00;;;7.60;;
65799;SDS011;52544;48.116;11.660;2023-06-01T01:28:21;13.85;;;7.82;;
65799;SDS011;52544;48.116;11.660;2023-06-01T01:30:47;14.68;;;7.90;;
65799;SDS011;52544;48.116;11.660;2023-06-01T01:33:16;18.42;;;8.18;;
65799;SDS011;52544;48.116;11.660;2023-06-01T01:35:43;12.70;;;7.28;;
65799;SDS011;52544;48.116;11.660;2023-06-01T01:38:08;17.55;;;8.23;;
65799;SDS011;52544;48.116;11.660;2023-06-01T01:40:34;11.73;;;7.05;;
65799;SDS011;52544;48.116;11.660;2023-06-01T01:42:59;14.75;;;8.02;;
65799;SDS011;52544;48.116;11.660;2023-06-01T01:45:26;14.15;;;8.02;;
65799;SDS011;52544;48.116;11.660;2023-06-01T01:47:58;15.02;;;8.00;;
65799;SDS011;52544;48.116;11.660;2023-06-01T01:50:27;14.80;;;7.43;;
65799;SDS011;52544;48.116;11.660;2023-06-01T01:52:57;16.73;;;8.27;;
65799;SDS011;52544;48.116;11.660;2023-06-01T01:55:24;18.20;;;8.65;;
65799;SDS011;52544;48.116;11.660;2023-06-01T01:57:51;14.52;;;8.32;;
65799;SDS011;52544;48.116;11.660;2023-06-01T02:00:18;14.15;;;8.25;;
65799;SDS011;52544;48.116;11.660;2023-06-01T02:02:45;12.90;;;8.02;;
65799;SDS011;52544;48.116;11.660;2023-06-01T02:05:11;12.98;;;7.53;;
65799;SDS011;52544;48.116;11.660;2023-06-01T02:07:36;16.55;;;7.85;;
65799;SDS011;52544;48.116;11.660;2023-06-01T02:10:02;14.38;;;8.10;;
65799;SDS011;52544;48.116;11.660;2023-06-01T02:12:27;14.57;;;8.50;;
65799;SDS011;52544;48.116;11.660;2023-06-01T02:14:53;11.32;;;7.68;;
65799;SDS011;52544;48.116;11.660;2023-06-01T02:17:18;15.18;;;8.02;;
65799;SDS011;52544;48.116;11.660;2023-06-01T02:19:46;13.80;;;7.90;;
65799;SDS011;52544;48.116;11.660;2023-06-01T02:22:12;12.80;;;7.93;;
65799;SDS011;52544;48.116;11.660;2023-06-01T02:24:37;12.50;;;7.97;;
65799;SDS011;52544;48.116;11.660;2023-06-01T02:27:03;13.52;;;7.38;;
65799;SDS011;52544;48.116;11.660;2023-06-01T02:29:29;13.65;;;8.13;;
65799;SDS011;52544;48.116;11.660;2023-06-01T02:31:54;13.10;;;8.85;;
65799;SDS011;52544;48.116;11.660;2023-06-01T02:34:20;14.15;;;8.20;;
65799;SDS011;52544;48.116;11.660;2023-06-01T02:36:46;12.27;;;8.25;;
65799;SDS011;52544;48.116;11.660;2023-06-01T02:39:13;16.33;;;8.25;;
65799;SDS011;52544;48.116;11.660;2023-06-01T02:41:38;13.90;;;7.97;;
65799;SDS011;52544;48.116;11.660;2023-06-01T02:44:04;12.85;;;7.68;;
65799;SDS011;52544;48.116;11.660;2023-06-01T02:46:29;15.02;;;8.38;;
65799;SDS011;52544;48.116;11.660;2023-06-01T02:48:55;15.75;;;8.38;;
65799;SDS011;52544;48.116;11.660;2023-06-01T02:51:20;13.63;;;8.65;;
65799;SDS011;52544;48.116;11.660;2023-06-01T02:53:46;18.30;;;8.77;;
65799;SDS011;52544;48.116;11.660;2023-06-01T02:56:11;15.57;;;8.50;;
65799;SDS011;52544;48.116;11.660;2023-06-01T02:58:38;14.40;;;8.73;;
65799;SDS011;52544;48.116;11.660;2023-06-01T03:01:03;14.98;;;8.15;;
65799;SDS011;52544;48.116;11.660;2023-06-01T03:03:29;14.40;;;8.55;;
65799;SDS011;52544;48.116;11.660;2023-06-01T03:05:54;12.82;;;8.18;;
65799;SDS011;52544;48.116;11.660;2023-06-01T03:08:20;17.70;;;8.77;;
65799;SDS011;52544;48.116;11.660;2023-06-01T03:10:46;15.52;;;8.30;;
65799;SDS011;52544;48.116;11.660;2023-06-01T03:13:12;15.43;;;8.65;;
65799;SDS011;52544;48.116;11.660;2023-06-01T03:15:38;16.88;;;8.93;;
65799;SDS011;52544;48.116;11.660;2023-06-01T03:18:03;16.00;;;9.43;;
65799;SDS011;52544;48.116;11.660;2023-06-01T03:20:33;14.10;;;8.60;;
65799;SDS011;52544;48.116;11.660;2023-06-01T03:22:59;14.27;;;8.70;;
65799;SDS011;52544;48.116;11.660;2023-06-01T03:25:25;13.70;;;8.63;;
65799;SDS011;52544;48.116;11.660;2023-06-01T03:27:50;14.63;;;8.52;;
65799;SDS011;52544;48.116;11.660;2023-06-01T03:30:16;17.73;;;9.15;;
65799;SDS011;52544;48.116;11.660;2023-06-01T03:32:42;15.60;;;9.05;;
65799;SDS011;52544;48.116;11.660;2023-06-01T03:35:09;14.10;;;8.43;;
65799;SDS011;52544;48.116;11.660;2023-06-01T03:37:37;14.88;;;8.48;;
65799;SDS011;52544;48.116;11.660;2023-06-01T03:40:03;15.77;;;8.73;;
65799;SDS011;52544;48.116;11.660;2023-06-01T03:42:39;13.90;;;8.38;;
65799;SDS011;52544;48.116;11.660;2023-06-01T03:45:06;19.27;;;8.15;;
65799;SDS011;52544;48.116;11.660;2023-06-01T03:47:32;15.55;;;8.63;;
65799;SDS011;52544;48.116;11.660;2023-06-01T03:50:01;13.50;;;8.57;;
65799;SDS011;52544;48.116;11.660;2023-06-01T03:52:28;14.68;;;8.20;;
65799;SDS011;52544;48.116;11.660;2023-06-01T03:54:55;18.08;;;9.35;;
65799;SDS011;52544;48.116;11.660;2023-06-01T03:57:23;13.45;;;8.45;;
65799;SDS011;52544;48.116;11.660;2023-06-01T03:59:49;14.60;;;8.68;;
65799;SDS011;52544;48.116;11.660;2023-06-01T04:02:16;14.00;;;8.43;;
65799;SDS011;52544;48.116;11.660;2023-06-01T04:04:43;16.23;;;8.55;;
65799;SDS011;52544;48.116;11.660;2023-06-01T04:07:12;16.20;;;8.85;;
65799;SDS011;52544;48.116;11.660;2023-06-01T04:09:47;18.70;;;8.80;;
65799;SDS011;52544;48.116;11.660;2023-06-01T04:12:13;12.98;;;8.50;;
65799;SDS011;52544;48.116;11.660;2023-06-01T04:14:39;15.82;;;8.98;;
65799;SDS011;52544;48.116;11.660;2023-06-01T04:17:05;14.95;;;8.63;;
65799;SDS011;52544;48.116;11.660;2023-06-01T04:19:31;12.55;;;7.80;;
65799;SDS011;52544;48.116;11.660;2023-06-01T04:21:57;13.57;;;8.88;;
65799;SDS011;52544;48.116;11.660;2023-06-01T04:24:23;14.00;;;8.60;;
65799;SDS011;52544;48.116;11.660;2023-06-01T04:26:48;14.82;;;8.85;;
65799;SDS011;52544;48.116;11.660;2023-06-01T04:29:15;16.50;;;8.80;;
65799;SDS011;52544;48.116;11.660;2023-06-01T04:31:41;19.70;;;9.38;;
65799;SDS011;52544;48.116;11.660;2023-06-01T04:34:06;16.95;;;8.90;;
65799;SDS011;52544;48.116;11.660;2023-06-01T04:36:35;17.55;;;8.73;;
65799;SDS011;52544;48.116;11.660;2023-06-01T04:39:04;14.90;;;9.27;;
65799;SDS011;52544;48.116;11.660;2023-06-01T04:41:31;14.52;;;8.77;;
65799;SDS011;52544;48.116;11.660;2023-06-01T04:43:57;15.68;;;8.68;;
65799;SDS011;52544;48.116;11.660;2023-06-01T04:46:23;14.13;;;8.75;;
65799;SDS011;52544;48.116;11.660;2023-06-01T04:48:51;13.98;;;9.05;;
65799;SDS011;52544;48.116;11.660;2023-06-01T04:51:20;18.80;;;9.30;;
65799;SDS011;52544;48.116;11.660;2023-06-01T04:53:47;16.58;;;9.02;;
65799;SDS011;52544;48.116;11.660;2023-06-01T04:56:20;15.75;;;9.93;;
65799;SDS011;52544;48.116;11.660;2023-06-01T04:58:53;17.33;;;9.50;;
65799;SDS011;52544;48.116;11.660;2023-06-01T05:01:23;15.73;;;9.80;;
65799;SDS011;52544;48.116;11.660;2023-06-01T05:03:54;16.38;;;10.05;;
65799;SDS011;52544;48.116;11.660;2023-06-01T05:06:21;15.38;;;9.77;;
65799;SDS011;52544;48.116;11.660;2023-06-01T05:08:47;15.02;;;9.35;;
65799;SDS011;52544;48.116;11.660;2023-06-01T05:11:13;19.27;;;10.10;;
65799;SDS011;52544;48.116;11.660;2023-06-01T05:13:38;18.15;;;10.43;;
65799;SDS011;52544;48.116;11.660;2023-06-01T05:16:05;18.48;;;10.52;;
65799;SDS011;52544;48.116;11.660;2023-06-01T05:18:32;18.05;;;9.63;;
65799;SDS011;52544;48.116;11.660;2023-06-01T05:20:58;15.57;;;9.65;;
65799;SDS011;52544;48.116;11.660;2023-06-01T05:23:24;16.88;;;9.90;;
65799;SDS011;52544;48.116;11.660;2023-06-01T05:25:50;19.42;;;9.52;;
65799;SDS011;52544;48.116;11.660;2023-06-01T05:28:16;12.80;;;8.68;;
65799;SDS011;52544;48.116;11.660;2023-06-01T05:30:42;16.10;;;9.52;;
65799;SDS011;52544;48.116;11.660;2023-06-01T05:33:07;18.35;;;9.27;;
65799;SDS011;52544;48.116;11.660;2023-06-01T05:35:32;14.07;;;8.55;;
65799;SDS011;52544;48.116;11.660;2023-06-01T05:37:59;12.75;;;8.32;;
65799;SDS011;52544;48.116;11.660;2023-06-01T05:40:25;17.42;;;7.85;;
65799;SDS011;52544;48.116;11.660;2023-06-01T05:42:50;13.85;;;7.97;;
65799;SDS011;52544;48.116;11.660;2023-06-01T05:45:16;11.75;;;7.85;;
65799;SDS011;52544;48.116;11.660;2023-06-01T05:47:41;16.77;;;8.05;;
65799;SDS011;52544;48.116;11.660;2023-06-01T05:50:06;14.82;;;8.23;;
65799;SDS011;52544;48.116;11.660;2023-06-01T05:52:32;12.85;;;8.50;;
65799;SDS011;52544;48.116;11.660;2023-06-01T05:54:57;13.75;;;8.48;;
65799;SDS011;52544;48.116;11.660;2023-06-01T05:57:23;17.58;;;9.55;;
65799;SDS011;52544;48.116;11.660;2023-06-01T05:59:48;17.42;;;9.23;;
65799;SDS011;52544;48.116;11.660;2023-06-01T06:02:14;15.57;;;9.30;;
65799;SDS011;52544;48.116;11.660;2023-06-01T06:04:40;12.80;;;8.52;;
65799;SDS011;52544;48.116;11.660;2023-06-01T06:07:05;19.77;;;8.98;;
65799;SDS011;52544;48.116;11.660;2023-06-01T06:09:31;17.05;;;9.65;;
65799;SDS011;52544;48.116;11.660;2023-06-01T06:11:56;26.27;;;9.50;;
65799;SDS011;52544;48.116;11.660;2023-06-01T06:14:22;18.83;;;8.68;;
65799;SDS011;52544;48.116;11.660;2023-06-01T06:16:48;17.70;;;8.90;;
65799;SDS011;52544;48.116;11.660;2023-06-01T06:19:13;15.15;;;8.40;;
65799;SDS011;52544;48.116;11.660;2023-06-01T06:21:41;20.40;;;9.00;;
65799;SDS011;52544;48.116;11.660;2023-06-01T06:24:06;18.10;;;7.57;;
65799;SDS011;52544;48.116;11.660;2023-06-01T06:26:32;16.40;;;8.20;;
65799;SDS011;52544;48.116;11.660;2023-06-01T06:28:57;15.00;;;8.27;;
65799;SDS011;52544;48.116;11.660;2023-06-01T06:31:23;16.63;;;8.80;;
65799;SDS011;52544;48.116;11.660;2023-06-01T06:33:48;14.32;;;8.07;;
65799;SDS011;52544;48.116;11.660;2023-06-01T06:36:14;20.13;;;9.43;;
65799;SDS011;52544;48.116;11.660;2023-06-01T06:38:41;20.73;;;9.32;;
65799;SDS011;52544;48.116;11.660;2023-06-01T06:41:06;15.15;;;8.88;;
65799;SDS011;52544;48.116;11.660;2023-06-01T06:43:32;16.08;;;8.90;;
65799;SDS011;52544;48.116;11.660;2023-06-01T06:45:57;18.63;;;9.00;;
65799;SDS011;52544;48.116;11.660;2023-06-01T06:48:22;18.35;;;8.75;;
65799;SDS011;52544;48.116;11.660;2023-06-01T06:50:48;13.65;;;7.93;;
65799;SDS011;52544;48.116;11.660;2023-06-01T06:53:13;19.25;;;9.07;;
65799;SDS011;52544;48.116;11.660;2023-06-01T06:55:39;18.65;;;9.15;;
65799;SDS011;52544;48.116;11.660;2023-06-01T06:58:04;16.45;;;8.10;;
65799;SDS011;52544;48.116;11.660;2023-06-01T07:00:29;15.45;;;8.48;;
65799;SDS011;52544;48.116;11.660;2023-06-01T07:02:55;19.52;;;11.18;;
65799;SDS011;52544;48.116;11.660;2023-06-01T07:05:23;18.25;;;8.82;;
65799;SDS011;52544;48.116;11.660;2023-06-01T07:07:48;15.13;;;8.85;;
65799;SDS011;52544;48.116;11.660;2023-06-01T07:10:14;15.57;;;8.65;;
65799;SDS011;52544;48.116;11.660;2023-06-01T07:12:39;16.40;;;8.60;;
65799;SDS011;52544;48.116;11.660;2023-06-01T07:15:05;18.00;;;8.75;;
65799;SDS011;52544;48.116;11.660;2023-06-01T07:17:31;17.98;;;9.23;;
65799;SDS011;52544;48.116;11.660;2023-06-01T07:19:57;16.05;;;8.48;;
65799;SDS011;52544;48.116;11.660;2023-06-01T07:22:23;22.73;;;9.07;;
65799;SDS011;52544;48.116;11.660;2023-06-01T07:24:48;18.73;;;8.85;;
65799;SDS011;52544;48.116;11.660;2023-06-01T07:27:14;15.90;;;8.43;;
65799;SDS011;52544;48.116;11.660;2023-06-01T07:29:39;15.80;;;8.80;;
65799;SDS011;52544;48.116;11.660;2023-06-01T07:32:06;19.52;;;9.00;;
65799;SDS011;52544;48.116;11.660;2023-06-01T07:34:31;19.85;;;8.93;;
65799;SDS011;52544;48.116;11.660;2023-06-01T07:36:58;14.90;;;8.75;;
65799;SDS011;52544;48.116;11.660;2023-06-01T07:39:24;17.27;;;8.60;;
65799;SDS011;52544;48.116;11.660;2023-06-01T07:41:50;21.83;;;8.48;;
65799;SDS011;52544;48.116;11.660;2023-06-01T07:44:18;16.63;;;8.57;;
65799;SDS011;52544;48.116;11.660;2023-06-01T07:46:45;14.77;;;8.20;;
65799;SDS011;52544;48.116;11.660;2023-06-01T07:49:12;15.50;;;9.75;;
65799;SDS011;52544;48.116;11.660;2023-06-01T07:51:42;14.57;;;8.55;;
65799;SDS011;52544;48.116;11.660;2023-06-01T07:54:07;16.08;;;7.68;;
65799;SDS011;52544;48.116;11.660;2023-06-01T07:56:33;18.15;;;8.65;;
65799;SDS011;52544;48.116;11.660;2023-06-01T07:58:59;17.45;;;8.32;;
65799;SDS011;52544;48.116;11.660;2023-06-01T08:01:25;26.42;;;8.07;;
65799;SDS011;52544;48.116;11.660;2023-06-01T08:03:50;11.70;;;6.97;;
65799;SDS011;52544;48.116;11.660;2023-06-01T08:06:16;17.95;;;8.85;;
65799;SDS011;52544;48.116;11.660;2023-06-01T08:08:42;14.90;;;8.23;;
65799;SDS011;52544;48.116;11.660;2023-06-01T08:11:07;17.45;;;8.82;;
65799;SDS011;52544;48.116;11.660;2023-06-01T08:13:34;19.40;;;9.18;;
65799;SDS011;52544;48.116;11.660;2023-06-01T08:16:02;13.07;;;7.32;;
65799;SDS011;52544;48.116;11.660;2023-06-01T08:18:29;12.13;;;7.60;;
65799;SDS011;52544;48.116;11.660;2023-06-01T08:20:55;13.95;;;7.97;;
65799;SDS011;52544;48.116;11.660;2023-06-01T08:23:21;16.30;;;7.35;;
65799;SDS011;52544;48.116;11.660;2023-06-01T08:25:49;14.93;;;8.18;;
65799;SDS011;52544;48.116;11.660;2023-06-01T08:28:15;16.23;;;7.70;;
65799;SDS011;52544;48.116;11.660;2023-06-01T08:30:41;14.50;;;6.97;;
65799;SDS011;52544;48.116;11.660;2023-06-01T08:33:06;18.27;;;8.10;;
65799;SDS011;52544;48.116;11.660;2023-06-01T08:35:32;20.90;;;8.40;;
65799;SDS011;52544;48.116;11.660;2023-06-01T08:38:02;11.43;;;7.63;;
65799;SDS011;52544;48.116;11.660;2023-06-01T08:40:28;14.35;;;7.20;;
65799;SDS011;52544;48.116;11.660;2023-06-01T08:42:58;11.30;;;6.60;;
65799;SDS011;52544;48.116;11.660;2023-06-01T08:45:36;22.55;;;7.63;;
65799;SDS011;52544;48.116;11.660;2023-06-01T08:48:03;13.45;;;7.45;;
65799;SDS011;52544;48.116;11.660;2023-06-01T08:50:33;24.02;;;8.18;;
65799;SDS011;52544;48.116;11.660;2023-06-01T08:52:59;12.32;;;7.00;;
65799;SDS011;52544;48.116;11.660;2023-06-01T08:55:26;11.63;;;7.63;;
65799;SDS011;52544;48.116;11.660;2023-06-01T08:57:51;13.57;;;7.72;;
65799;SDS011;52544;48.116;11.660;2023-06-01T09:00:18;12.50;;;7.28;;
65799;SDS011;52544;48.116;11.660;2023-06-01T09:02:45;12.40;;;7.07;;
65799;SDS011;52544;48.116;11.660;2023-06-01T09:05:11;11.77;;;7.32;;
65799;SDS011;52544;48.116;11.660;2023-06-01T09:07:38;12.95;;;7.03;;
65799;SDS011;52544;48.116;11.660;2023-06-01T09:10:04;12.25;;;6.40;;
65799;SDS011;52544;48.116;11.660;2023-06-01T09:12:31;12.38;;;6.82;;
65799;SDS011;52544;48.116;11.660;2023-06-01T09:15:19;10.63;;;6.55;;
65799;SDS011;52544;48.116;11.660;2023-06-01T09:17:44;12.07;;;6.90;;
65799;SDS011;52544;48.116;11.660;2023-06-01T09:20:24;16.33;;;7.18;;
65799;SDS011;52544;48.116;11.660;2023-06-01T09:22:53;13.55;;;6.75;;
65799;SDS011;52544;48.116;11.660;2023-06-01T09:25:23;10.98;;;7.40;;
65799;SDS011;52544;48.116;11.660;2023-06-01T09:27:53;14.10;;;7.15;;
65799;SDS011;52544;48.116;11.660;2023-06-01T09:30:20;12.02;;;7.13;;
65799;SDS011;52544;48.116;11.660;2023-06-01T09:32:47;12.23;;;6.70;;
65799;SDS011;52544;48.116;11.660;2023-06-01T09:35:37;12.70;;;7.20;;
65799;SDS011;52544;48.116;11.660;2023-06-01T09:38:08;12.82;;;6.95;;
65799;SDS011;52544;48.116;11.660;2023-06-01T09:40:36;9.95;;;6.70;;
65799;SDS011;52544;48.116;11.660;2023-06-01T09:43:03;8.88;;;6.45;;
65799;SDS011;52544;48.116;11.660;2023-06-01T09:45:53;13.43;;;7.00;;
65799;SDS011;52544;48.116;11.660;2023-06-01T09:48:29;11.95;;;6.82;;
65799;SDS011;52544;48.116;11.660;2023-06-01T09:50:54;13.75;;;7.18;;
65799;SDS011;52544;48.116;11.660;2023-06-01T09:53:20;12.60;;;6.80;;
65799;SDS011;52544;48.116;11.660;2023-06-01T09:55:57;11.43;;;6.78;;
65799;SDS011;52544;48.116;11.660;2023-06-01T09:58:24;11.23;;;6.35;;
65799;SDS011;52544;48.116;11.660;2023-06-01T10:00:50;11.32;;;6.57;;
65799;SDS011;52544;48.116;11.660;2023-06-01T10:03:17;11.45;;;6.95;;
65799;SDS011;52544;48.116;11.660;2023-06-01T10:05:43;11.40;;;6.88;;
65799;SDS011;52544;48.116;11.660;2023-06-01T10:08:11;11.70;;;7.13;;
65799;SDS011;52544;48.116;11.660;2023-06-01T10:10:38;11.63;;;6.60;;
65799;SDS011;52544;48.116;11.660;2023-06-01T10:13:05;14.73;;;6.78;;
65799;SDS011;52544;48.116;11.660;2023-06-01T10:15:32;11.98;;;6.50;;
65799;SDS011;52544;48.116;11.660;2023-06-01T10:17:58;9.45;;;6.72;;
65799;SDS011;52544;48.116;11.660;2023-06-01T10:20:25;9.70;;;6.82;;
65799;SDS011;52544;48.116;11.660;2023-06-01T10:22:50;10.05;;;6.20;;
65799;SDS011;52544;48.116;11.660;2023-06-01T10:25:16;10.15;;;6.18;;
65799;SDS011;52544;48.116;11.660;2023-06-01T10:27:51;8.95;;;6.38;;
65799;SDS011;52544;48.116;11.660;2023-06-01T10:30:20;14.38;;;6.68;;
65799;SDS011;52544;48.116;11.660;2023-06-01T10:32:46;9.65;;;6.20;;
65799;SDS011;52544;48.116;11.660;2023-06-01T10:40:33;9.57;;;6.55;;
65799;SDS011;52544;48.116;11.660;2023-06-01T10:42:58;10.38;;;6.70;;
65799;SDS011;52544;48.116;11.660;2023-06-01T10:45:37;13.38;;;6.35;;
65799;SDS011;52544;48.116;11.660;2023-06-01T10:48:04;12.65;;;6.40;;
65799;SDS011;52544;48.116;11.660;2023-06-01T10:50:32;12.15;;;6.40;;
65799;SDS011;52544;48.116;11.660;2023-06-01T10:53:23;8.18;;;6.00;;
65799;SDS011;52544;48.116;11.660;2023-06-01T11:01:41;10.00;;;6.25;;
65799;SDS011;52544;48.116;11.660;2023-06-01T11:04:11;11.63;;;6.15;;
65799;SDS011;52544;48.116;11.660;2023-06-01T11:06:38;15.32;;;6.47;;
65799;SDS011;52544;48.116;11.660;2023-06-01T11:09:06;9.60;;;6.07;;
65799;SDS011;52544;48.116;11.660;2023-06-01T11:14:17;9.93;;;5.90;;
65799;SDS011;52544;48.116;11.660;2023-06-01T11:16:44;9.05;;;6.25;;
65799;SDS011;52544;48.116;11.660;2023-06-01T11:19:10;10.60;;;5.70;;
65799;SDS011;52544;48.116;11.660;2023-06-01T11:21:42;10.90;;;5.43;;
65799;SDS011;52544;48.116;11.660;2023-06-01T11:24:10;8.43;;;5.50;;
65799;SDS011;52544;48.116;11.660;2023-06-01T11:26:49;14.05;;;6.28;;
65799;SDS011;52544;48.116;11.660;2023-06-01T11:29:19;12.60;;;6.07;;
65799;SDS011;52544;48.116;11.660;2023-06-01T11:31:56;7.80;;;5.95;;
65799;SDS011;52544;48.116;11.660;2023-06-01T11:34:33;9.15;;;6.03;;
65799;SDS011;52544;48.116;11.660;2023-06-01T11:37:00;9.65;;;5.22;;
65799;SDS011;52544;48.116;11.660;2023-06-01T11:39:27;12.05;;;6.25;;
65799;SDS011;52544;48.116;11.660;2023-06-01T11:42:05;14.75;;;5.78;;
65799;SDS011;52544;48.116;11.660;2023-06-01T11:44:36;15.32;;;6.32;;
65799;SDS011;52544;48.116;11.660;2023-06-01T11:47:03;9.60;;;5.90;;
65799;SDS011;52544;48.116;11.660;2023-06-01T11:49:31;17.00;;;6.05;;
65799;SDS011;52544;48.116;11.660;2023-06-01T11:52:08;9.63;;;6.22;;
65799;SDS011;52544;48.116;11.660;2023-06-01T11:54:34;11.15;;;6.20;;
65799;SDS011;52544;48.116;11.660;2023-06-01T11:57:02;10.85;;;5.40;;
65799;SDS011;52544;48.116;11.660;2023-06-01T11:59:32;9.98;;;6.07;;
65799;SDS011;52544;48.116;11.660;2023-06-01T12:02:02;9.50;;;5.72;;
65799;SDS011;52544;48.116;11.660;2023-06-01T12:04:28;11.98;;;5.75;;
65799;SDS011;52544;48.116;11.660;2023-06-01T12:07:05;8.98;;;5.95;;
65799;SDS011;52544;48.116;11.660;2023-06-01T12:09:31;10.75;;;5.70;;
65799;SDS011;52544;48.116;11.660;2023-06-01T12:11:56;12.82;;;6.43;;
65799;SDS011;52544;48.116;11.660;2023-06-01T12:14:22;9.07;;;5.88;;
65799;SDS011;52544;48.116;11.660;2023-06-01T12:16:51;8.27;;;5.40;;
65799;SDS011;52544;48.116;11.660;2023-06-01T12:19:21;10.57;;;5.63;;
65799;SDS011;52544;48.116;11.660;2023-06-01T12:21:48;8.15;;;5.43;;
65799;SDS011;52544;48.116;11.660;2023-06-01T12:24:15;8.15;;;5.47;;
65799;SDS011;52544;48.116;11.660;2023-06-01T12:26:41;9.73;;;5.85;;
65799;SDS011;52544;48.116;11.660;2023-06-01T12:29:07;8.32;;;5.82;;
65799;SDS011;52544;48.116;11.660;2023-06-01T12:31:32;10.07;;;5.93;;
65799;SDS011;52544;48.116;11.660;2023-06-01T12:33:58;12.88;;;6.20;;
65799;SDS011;52544;48.116;11.660;2023-06-01T12:36:30;7.55;;;5.65;;
65799;SDS011;52544;48.116;11.660;2023-06-01T12:38:57;7.93;;;5.13;;
65799;SDS011;52544;48.116;11.660;2023-06-01T12:41:24;11.55;;;5.90;;
65799;SDS011;52544;48.116;11.660;2023-06-01T12:43:50;7.97;;;5.85;;
65799;SDS011;52544;48.116;11.660;2023-06-01T12:48:45;10.13;;;6.15;;
65799;SDS011;52544;48.116;11.660;2023-06-01T12:51:12;12.98;;;5.93;;
65799;SDS011;52544;48.116;11.660;2023-06-01T12:53:38;7.45;;;5.07;;
65799;SDS011;52544;48.116;11.660;2023-06-01T12:56:05;9.30;;;5.97;;
65799;SDS011;52544;48.116;11.660;2023-06-01T12:58:31;10.25;;;5.60;;
65799;SDS011;52544;48.116;11.660;2023-06-01T13:00:57;8.48;;;5.50;;
65799;SDS011;52544;48.116;11.660;2023-06-01T13:03:22;7.35;;;5.68;;
65799;SDS011;52544;48.116;11.660;2023-06-01T13:05:48;11.30;;;6.07;;
65799;SDS011;52544;48.116;11.660;2023-06-01T13:08:18;9.00;;;5.25;;
65799;SDS011;52544;48.116;11.660;2023-06-01T13:10:44;8.65;;;5.60;;
65799;SDS011;52544;48.116;11.660;2023-06-01T13:13:10;11.02;;;5.70;;
65799;SDS011;52544;48.116;11.660;2023-06-01T13:15:40;8.15;;;5.45;;
65799;SDS011;52544;48.116;11.660;2023-06-01T13:18:09;10.73;;;5.45;;
65799;SDS011;52544;48.116;11.660;2023-06-01T13:20:35;7.55;;;5.40;;
65799;SDS011;52544;48.116;11.660;2023-06-01T13:23:01;7.95;;;5.43;;
65799;SDS011;52544;48.116;11.660;2023-06-01T13:25:27;10.77;;;5.20;;
65799;SDS011;52544;48.116;11.660;2023-06-01T13:27:52;11.98;;;6.32;;
65799;SDS011;52544;48.116;11.660;2023-06-01T13:30:18;12.32;;;5.72;;
65799;SDS011;52544;48.116;11.660;2023-06-01T13:32:43;12.30;;;5.72;;
65799;SDS011;52544;48.116;11.660;2023-06-01T13:35:09;9.73;;;5.15;;
65799;SDS011;52544;48.116;11.660;2023-06-01T13:37:36;12.88;;;5.85;;
65799;SDS011;52544;48.116;11.660;2023-06-01T13:40:03;10.82;;;5.43;;
65799;SDS011;52544;48.116;11.660;2023-06-01T13:42:30;11.32;;;5.72;;
65799;SDS011;52544;48.116;11.660;2023-06-01T13:44:57;9.80;;;5.47;;
65799;SDS011;52544;48.116;11.660;2023-06-01T13:47:23;6.57;;;5.07;;
65799;SDS011;52544;48.116;11.660;2023-06-01T13:49:48;9.20;;;5.40;;
65799;SDS011;52544;48.116;11.660;2023-06-01T13:52:13;7.45;;;4.88;;
65799;SDS011;52544;48.116;11.660;2023-06-01T13:54:39;10.73;;;5.45;;
65799;SDS011;52544;48.116;11.660;2023-06-01T13:57:04;12.60;;;6.10;;
65799;SDS011;52544;48.116;11.660;2023-06-01T13:59:33;11.00;;;5.40;;
65799;SDS011;52544;48.116;11.660;2023-06-01T14:02:01;8.80;;;5.10;;
65799;SDS011;52544;48.116;11.660;2023-06-01T14:04:29;9.23;;;5.80;;
65799;SDS011;52544;48.116;11.660;2023-06-01T14:06:55;10.90;;;5.20;;
65799;SDS011;52544;48.116;11.660;2023-06-01T14:09:21;12.25;;;5.60;;
65799;SDS011;52544;48.116;11.660;2023-06-01T14:11:47;10.15;;;5.30;;
65799;SDS011;52544;48.116;11.660;2023-06-01T14:14:13;7.55;;;5.25;;
65799;SDS011;52544;48.116;11.660;2023-06-01T14:16:38;13.65;;;5.78;;
65799;SDS011;52544;48.116;11.660;2023-06-01T14:19:04;8.70;;;5.00;;
65799;SDS011;52544;48.116;11.660;2023-06-01T14:21:30;7.72;;;5.28;;
65799;SDS011;52544;48.116;11.660;2023-06-01T14:23:56;11.35;;;5.43;;
65799;SDS011;52544;48.116;11.660;2023-06-01T14:26:22;9.07;;;5.30;;
65799;SDS011;52544;48.116;11.660;2023-06-01T14:28:47;7.95;;;5.15;;
65799;SDS011;52544;48.116;11.660;2023-06-01T14:31:13;12.98;;;5.60;;
65799;SDS011;52544;48.116;11.660;2023-06-01T14:33:38;8.00;;;5.10;;
65799;SDS011;52544;48.116;11.660;2023-06-01T14:36:05;8.95;;;5.28;;
65799;SDS011;52544;48.116;11.660;2023-06-01T14:38:30;9.77;;;4.72;;
65799;SDS011;52544;48.116;11.660;2023-06-01T14:40:56;7.22;;;5.32;;
65799;SDS011;52544;48.116;11.660;2023-06-01T14:43:21;10.95;;;5.15;;
65799;SDS011;52544;48.116;11.660;2023-06-01T14:45:47;7.88;;;4.93;;
65799;SDS011;52544;48.116;11.660;2023-06-01T14:48:12;7.20;;;5.20;;